createdAt,value
2022-09-04T00:02:50.954Z,100613.13
2022-09-04T00:05:45.919Z,100611.91
2022-09-04T00:08:40.554Z,100520.41
2022-09-04T00:11:07.610Z,100610.88
2022-09-04T00:13:42.806Z,100615.81
2022-09-04T00:16:45.378Z,100634.00
2022-09-04T00:19:36.039Z,100646.13
2022-09-04T00:22:18.546Z,100595.13
2022-09-04T00:24:57.664Z,100606.63
2022-09-04T00:27:29.918Z,100599.41
2022-09-04T00:30:14.836Z,100591.38
2022-09-04T00:32:48.575Z,100586.38
2022-09-04T00:35:31.702Z,100615.41
2022-09-04T00:38:04.429Z,100602.81
2022-09-04T00:40:51.650Z,100608.81
2022-09-04T00:43:24.409Z,100624.66
2022-09-04T00:46:00.753Z,100620.22
2022-09-04T00:49:02.679Z,100624.63
2022-09-04T00:51:45.206Z,100620.13
2022-09-04T00:54:50.668Z,100624.50
2022-09-04T00:57:42.611Z,100621.75
2022-09-04T01:00:16.982Z,100589.81
2022-09-04T01:03:01.666Z,100594.19
2022-09-04T01:06:16.258Z,100598.69
2022-09-04T01:08:49.429Z,100509.97
2022-09-04T01:11:43.323Z,100627.66
2022-09-04T01:14:22.193Z,100630.13
2022-09-04T01:17:16.438Z,100581.03
2022-09-04T01:19:58.695Z,100532.53
2022-09-04T01:22:59.259Z,100524.63
2022-09-04T01:25:54.142Z,100631.06
2022-09-04T01:28:40.718Z,100589.53
2022-09-04T01:31:12.814Z,100610.59
2022-09-04T01:33:48.386Z,100547.78
2022-09-04T01:36:28.124Z,100633.94
2022-09-04T01:39:01.609Z,100619.28
2022-09-04T01:41:38.373Z,100634.81
2022-09-04T01:44:08.545Z,100528.66
2022-09-04T01:46:54.276Z,100627.38
2022-09-04T01:49:45.566Z,100624.78
2022-09-04T01:52:50.334Z,100622.06
2022-09-04T01:55:24.304Z,100626.19
2022-09-04T01:57:57.030Z,100606.91
2022-09-04T02:00:25.781Z,100604.06
2022-09-04T02:03:11.997Z,100617.28
2022-09-04T02:05:55.210Z,100517.97
2022-09-04T02:08:41.509Z,100612.84
2022-09-04T02:11:19.513Z,100612.66
2022-09-04T02:14:24.442Z,100614.53
2022-09-04T02:17:09.002Z,100588.00
2022-09-04T02:20:11.202Z,100588.75
2022-09-04T02:22:56.452Z,100616.81
2022-09-04T02:25:43.859Z,100611.34
2022-09-04T02:28:19.884Z,100529.41
2022-09-04T02:31:19.137Z,100611.38
2022-09-04T02:33:57.644Z,100486.09
2022-09-04T02:36:36.147Z,100576.59
2022-09-04T02:39:18.303Z,100588.06
2022-09-04T02:42:10.969Z,100619.34
2022-09-04T02:44:48.811Z,100628.84
2022-09-04T02:48:13.857Z,100628.03
2022-09-04T02:51:09.385Z,100625.13
2022-09-04T02:53:57.600Z,100633.75
2022-09-04T02:56:28.354Z,100627.72
2022-09-04T02:59:23.139Z,100631.34
2022-09-04T03:02:02.972Z,100554.75
2022-09-04T03:05:02.491Z,100628.88
2022-09-04T03:07:46.032Z,100638.44
2022-09-04T03:10:20.996Z,100614.81
2022-09-04T03:13:05.656Z,100630.69
2022-09-04T03:15:57.674Z,100629.84
2022-09-04T03:18:27.562Z,100632.34
2022-09-04T03:21:01.809Z,100639.31
2022-09-04T03:23:51.953Z,100562.13
2022-09-04T03:26:42.251Z,100634.50
2022-09-04T03:29:22.170Z,100632.63
2022-09-04T03:32:15.571Z,100634.50
2022-09-04T03:35:02.515Z,100624.19
2022-09-04T03:37:57.398Z,100629.31
2022-09-04T03:40:41.827Z,100638.03
2022-09-04T03:44:06.581Z,100635.63
2022-09-04T03:47:01.155Z,100547.03
2022-09-04T03:49:51.711Z,100626.31
2022-09-04T03:52:51.828Z,100628.38
2022-09-04T03:55:37.508Z,100631.06
2022-09-04T03:58:16.222Z,100637.31
2022-09-04T04:01:13.926Z,100625.34
2022-09-04T04:04:09.316Z,100629.81
2022-09-04T04:06:51.468Z,100488.97
2022-09-04T04:09:24.300Z,100623.84
2022-09-04T04:12:15.829Z,100619.84
2022-09-04T04:15:10.234Z,100604.16
2022-09-04T04:17:56.895Z,100622.06
2022-09-04T04:20:47.091Z,100607.31
2022-09-04T04:23:36.484Z,100615.16
2022-09-04T04:26:08.129Z,100608.25
2022-09-04T04:28:58.744Z,100575.03
2022-09-04T04:32:11.423Z,100611.31
2022-09-04T04:34:51.350Z,100596.31
2022-09-04T04:37:36.958Z,100385.31
2022-09-04T04:40:34.597Z,100615.75
2022-09-04T04:43:31.484Z,100581.78
2022-09-04T04:46:10.682Z,100599.38
2022-09-04T04:49:05.421Z,100533.81
2022-09-04T04:51:54.070Z,100371.19
2022-09-04T04:54:48.761Z,100564.63
2022-09-04T04:57:49.426Z,100624.47
2022-09-04T05:00:55.960Z,100625.66
2022-09-04T05:03:52.273Z,100615.16
2022-09-04T05:06:31.693Z,100604.59
2022-09-04T05:09:29.059Z,100597.94
2022-09-04T05:12:29.252Z,100614.03
2022-09-04T05:15:29.151Z,100620.19
2022-09-04T05:18:20.229Z,100613.25
2022-09-04T05:21:08.120Z,100448.50
2022-09-04T05:23:45.874Z,100598.72
2022-09-04T05:26:21.819Z,100627.81
2022-09-04T05:28:55.070Z,100632.38
2022-09-04T05:31:37.771Z,100551.75
2022-09-04T05:34:16.262Z,100608.09
2022-09-04T05:36:46.462Z,100627.47
2022-09-04T05:39:16.705Z,100613.53
2022-09-04T05:41:43.672Z,100625.97
2022-09-04T05:44:21.476Z,100636.44
2022-09-04T05:47:19.629Z,100634.91
2022-09-04T05:50:07.130Z,100627.34
2022-09-04T05:52:34.351Z,100638.56
2022-09-04T05:55:32.238Z,100631.75
2022-09-04T05:58:05.429Z,100631.91
2022-09-04T06:00:53.757Z,100626.81
2022-09-04T06:03:54.919Z,100560.34
2022-09-04T06:06:31.197Z,100637.78
2022-09-04T06:09:26.435Z,100419.56
2022-09-04T06:12:18.773Z,100630.56
2022-09-04T06:15:16.321Z,100635.59
2022-09-04T06:17:59.067Z,100634.00
2022-09-04T06:21:04.771Z,100640.16
2022-09-04T06:23:31.702Z,100624.44
2022-09-04T06:26:01.667Z,100638.41
2022-09-04T06:28:56.219Z,100440.63
2022-09-04T06:31:23.424Z,100647.97
2022-09-04T06:34:22.306Z,100644.44
2022-09-04T06:37:07.310Z,100638.22
2022-09-04T06:40:01.758Z,100641.69
2022-09-04T06:42:50.569Z,100532.25
2022-09-04T06:46:16.223Z,100627.94
2022-09-04T06:48:49.431Z,100618.72
2022-09-04T06:51:19.306Z,100633.59
2022-09-04T06:53:51.991Z,100629.84
2022-09-04T06:56:37.383Z,100609.06
2022-09-04T06:59:36.674Z,100611.06
2022-09-04T07:02:22.440Z,100621.44
2022-09-04T07:04:52.207Z,100630.00
2022-09-04T07:07:30.904Z,100637.84
2022-09-04T07:10:18.234Z,100615.41
2022-09-04T07:12:54.042Z,100624.25
2022-09-04T07:15:48.916Z,100629.06
2022-09-04T07:19:02.223Z,100634.63
2022-09-04T07:21:54.707Z,100617.25
2022-09-04T07:24:41.320Z,100620.84
2022-09-04T07:27:26.923Z,100613.88
2022-09-04T07:30:03.491Z,100587.66
2022-09-04T07:32:56.955Z,100612.16
2022-09-04T07:35:36.493Z,100606.91
2022-09-04T07:38:12.833Z,100612.19
2022-09-04T07:41:09.435Z,100599.94
2022-09-04T07:43:57.899Z,100482.75
2022-09-04T07:46:44.690Z,100519.47
2022-09-04T07:49:30.638Z,100522.13
2022-09-04T07:52:08.890Z,100573.72
2022-09-04T07:55:10.022Z,100507.25
2022-09-04T07:57:55.835Z,100362.09
2022-09-04T08:00:23.102Z,100615.69
2022-09-04T08:03:27.046Z,100591.16
2022-09-04T08:06:16.011Z,100592.06
2022-09-04T08:09:03.658Z,100592.06
2022-09-04T08:11:39.777Z,100588.56
2022-09-04T08:14:37.822Z,100589.44
2022-09-04T08:17:05.624Z,100590.28
2022-09-04T08:19:40.493Z,100507.25
2022-09-04T08:22:14.269Z,100510.75
2022-09-04T08:25:09.026Z,100563.22
2022-09-04T08:28:10.848Z,100491.50
2022-09-04T08:30:54.090Z,100561.44
2022-09-04T08:33:41.318Z,100557.03
2022-09-04T08:36:25.681Z,100571.03
2022-09-04T08:39:03.503Z,100539.53
2022-09-04T08:41:48.552Z,100563.09
2022-09-04T08:44:36.813Z,100522.84
2022-09-04T08:47:12.869Z,100562.13
2022-09-04T08:50:01.006Z,100423.13
2022-09-04T08:52:46.582Z,100559.41
2022-09-04T08:55:28.426Z,100540.19
2022-09-04T08:58:23.613Z,100555.91
2022-09-04T09:01:03.465Z,100396.09
2022-09-04T09:03:57.779Z,100553.38
2022-09-04T09:06:46.496Z,100541.97
2022-09-04T09:09:38.247Z,100543.66
2022-09-04T09:12:11.552Z,100548.06
2022-09-04T09:14:44.841Z,100547.22
2022-09-04T09:17:34.421Z,100482.53
2022-09-04T09:20:19.918Z,100547.19
2022-09-04T09:23:10.796Z,100537.69
2022-09-04T09:26:24.195Z,100556.06
2022-09-04T09:28:57.316Z,100330.69
2022-09-04T09:32:03.965Z,100551.78
2022-09-04T09:35:09.067Z,100544.78
2022-09-04T09:37:38.990Z,100549.19
2022-09-04T09:40:27.351Z,100554.47
2022-09-04T09:43:09.740Z,100468.75
2022-09-04T09:45:48.919Z,100474.03
2022-09-04T09:48:35.532Z,100382.25
2022-09-04T09:51:40.022Z,100533.34
2022-09-04T09:54:43.848Z,100507.94
2022-09-04T09:57:39.153Z,100527.91
2022-09-04T10:00:13.298Z,100526.03
2022-09-04T10:03:15.451Z,100523.19
2022-09-04T10:06:14.843Z,100510.09
2022-09-04T10:09:08.603Z,100528.38
2022-09-04T10:12:02.443Z,100464.63
2022-09-04T10:14:41.268Z,100451.53
2022-09-04T10:17:39.203Z,100521.34
2022-09-04T10:20:32.450Z,100519.53
2022-09-04T10:23:17.232Z,100304.09
2022-09-04T10:25:55.095Z,100512.72
2022-09-04T10:28:40.940Z,100517.13
2022-09-04T10:31:27.391Z,100510.06
2022-09-04T10:34:15.689Z,100516.22
2022-09-04T10:37:01.317Z,100511.06
2022-09-04T10:40:29.460Z,100527.78
2022-09-04T10:43:27.343Z,100525.16
2022-09-04T10:46:04.121Z,100472.84
2022-09-04T10:48:49.687Z,100520.88
2022-09-04T10:51:37.983Z,100544.72
2022-09-04T10:54:32.560Z,100520.25
2022-09-04T10:57:02.621Z,100485.31
2022-09-04T10:59:35.483Z,100509.81
2022-09-04T11:02:17.566Z,100489.66
2022-09-04T11:05:03.248Z,100473.94
2022-09-04T11:07:59.484Z,100425.00
2022-09-04T11:10:41.345Z,100444.19
2022-09-04T11:13:11.303Z,100508.84
2022-09-04T11:16:10.514Z,100511.41
2022-09-04T11:18:46.412Z,100506.13
2022-09-04T11:21:45.981Z,100508.66
2022-09-04T11:24:33.626Z,100506.97
2022-09-04T11:27:25.648Z,100482.59
2022-09-04T11:29:59.494Z,100501.03
2022-09-04T11:33:01.585Z,100401.44
2022-09-04T11:35:58.837Z,100502.78
2022-09-04T11:38:47.044Z,100501.06
2022-09-04T11:41:32.188Z,100504.56
2022-09-04T11:44:10.410Z,100495.81
2022-09-04T11:47:06.835Z,100503.66
2022-09-04T11:49:34.632Z,100499.34
2022-09-04T11:52:07.874Z,100431.19
2022-09-04T11:55:02.816Z,100494.06
2022-09-04T11:57:48.329Z,100493.19
2022-09-04T12:00:17.363Z,100485.31
2022-09-04T12:02:47.637Z,100403.22
2022-09-04T12:05:39.531Z,100494.06
2022-09-04T12:08:35.921Z,100482.72
2022-09-04T12:11:13.267Z,100495.88
2022-09-04T12:13:59.915Z,100485.38
2022-09-04T12:16:42.419Z,100495.00
2022-09-04T12:19:33.400Z,100502.00
2022-09-04T12:22:03.390Z,100476.66
2022-09-04T12:24:51.890Z,100486.25
2022-09-04T12:27:47.815Z,100494.13
2022-09-04T12:31:02.826Z,100481.91
2022-09-04T12:33:44.759Z,100485.38
2022-09-04T12:36:45.597Z,100495.00
2022-09-04T12:39:31.835Z,100459.13
2022-09-04T12:42:10.050Z,100475.72
2022-09-04T12:44:55.613Z,100477.50
2022-09-04T12:47:33.304Z,100495.81
2022-09-04T12:50:03.610Z,100475.72
2022-09-04T12:52:46.462Z,100490.59
2022-09-04T12:55:31.444Z,100375.19
2022-09-04T12:58:21.567Z,100483.59
2022-09-04T13:01:10.637Z,100397.91
2022-09-04T13:03:38.403Z,100487.94
2022-09-04T13:06:34.196Z,100487.94
2022-09-04T13:09:01.770Z,100485.31
2022-09-04T13:11:49.264Z,100450.34
2022-09-04T13:14:34.851Z,100481.84
2022-09-04T13:17:18.796Z,100466.06
2022-09-04T13:20:01.247Z,100467.84
2022-09-04T13:22:51.875Z,100362.94
2022-09-04T13:26:06.117Z,100463.47
2022-09-04T13:28:55.037Z,100458.25
2022-09-04T13:31:33.633Z,100462.63
2022-09-04T13:34:13.614Z,100389.19
2022-09-04T13:36:54.545Z,100463.47
2022-09-04T13:39:40.270Z,100458.25
2022-09-04T13:42:28.477Z,100460.00
2022-09-04T13:45:09.548Z,100433.78
2022-09-04T13:47:51.455Z,100458.25
2022-09-04T13:50:44.185Z,100391.81
2022-09-04T13:53:31.028Z,100458.25
2022-09-04T13:56:03.318Z,100457.38
2022-09-04T13:58:34.641Z,100441.59
2022-09-04T14:01:07.435Z,100460.84
2022-09-04T14:03:49.870Z,100473.97
2022-09-04T14:06:21.203Z,100369.00
2022-09-04T14:08:55.590Z,100474.78
2022-09-04T14:11:58.364Z,100466.06
2022-09-04T14:15:07.824Z,100466.94
2022-09-04T14:17:56.465Z,100470.44
2022-09-04T14:20:33.743Z,100466.88
2022-09-04T14:23:20.577Z,100471.28
2022-09-04T14:26:12.790Z,100384.59
2022-09-04T14:29:01.578Z,100471.25
2022-09-04T14:31:53.923Z,100382.03
2022-09-04T14:34:25.497Z,100458.09
2022-09-04T14:37:36.460Z,100399.44
2022-09-04T14:40:45.174Z,100459.81
2022-09-04T14:43:26.218Z,100463.28
2022-09-04T14:46:07.084Z,100365.28
2022-09-04T14:48:41.487Z,100449.28
2022-09-04T14:51:17.532Z,100369.66
2022-09-04T14:53:56.086Z,100398.50
2022-09-04T14:56:42.829Z,100385.34
2022-09-04T14:59:21.653Z,100445.72
2022-09-04T15:01:58.362Z,100406.38
2022-09-04T15:04:34.192Z,100427.34
2022-09-04T15:07:32.870Z,100416.88
2022-09-04T15:10:10.653Z,100448.31
2022-09-04T15:12:44.536Z,100408.03
2022-09-04T15:15:49.621Z,100450.06
2022-09-04T15:18:39.280Z,100215.66
2022-09-04T15:21:09.903Z,100445.63
2022-09-04T15:24:01.741Z,100442.13
2022-09-04T15:26:32.330Z,100375.59
2022-09-04T15:29:23.300Z,100430.72
2022-09-04T15:32:00.918Z,100355.44
2022-09-04T15:34:30.030Z,100452.47
2022-09-04T15:37:27.007Z,100456.88
2022-09-04T15:40:01.422Z,100277.47
2022-09-04T15:42:35.100Z,100393.75
2022-09-04T15:45:28.594Z,100443.66
2022-09-04T15:48:33.191Z,100454.13
2022-09-04T15:51:22.251Z,100456.66
2022-09-04T15:54:15.449Z,100400.66
2022-09-04T15:56:51.873Z,100376.94
2022-09-04T15:59:25.255Z,100441.72
2022-09-04T16:01:55.847Z,100435.56
2022-09-04T16:04:49.714Z,100459.16
2022-09-04T16:07:37.222Z,100456.47
2022-09-04T16:10:12.392Z,100461.72
2022-09-04T16:12:41.307Z,100465.00
2022-09-04T16:15:18.400Z,100453.56
2022-09-04T16:17:50.849Z,100397.47
2022-09-04T16:20:36.621Z,100442.19
2022-09-04T16:23:10.442Z,100473.53
2022-09-04T16:25:41.047Z,100471.72
2022-09-04T16:28:16.149Z,100406.00
2022-09-04T16:31:23.278Z,100474.28
2022-09-04T16:33:54.415Z,100380.41
2022-09-04T16:36:27.330Z,100444.28
2022-09-04T16:39:06.397Z,100474.03
2022-09-04T16:41:37.919Z,100209.34
2022-09-04T16:44:26.279Z,100331.06
2022-09-04T16:47:09.258Z,100485.16
2022-09-04T16:49:58.606Z,100489.44
2022-09-04T16:52:35.741Z,100471.88
2022-09-04T16:55:25.728Z,100486.81
2022-09-04T16:58:11.201Z,100478.81
2022-09-04T17:01:13.679Z,100498.84
2022-09-04T17:04:15.919Z,100495.28
2022-09-04T17:07:08.919Z,100501.28
2022-09-04T17:09:48.150Z,100497.72
2022-09-04T17:12:47.429Z,100502.91
2022-09-04T17:15:55.839Z,100495.84
2022-09-04T17:18:28.531Z,100477.38
2022-09-04T17:25:43.350Z,100456.19
2022-09-04T17:29:08.057Z,100393.69
2022-09-04T17:29:10.110Z,100348.31
2022-09-04T17:30:55.914Z,100491.13
2022-09-04T17:39:25.789Z,100483.03
2022-09-04T17:40:38.299Z,100496.16
2022-09-04T17:40:55.265Z,100502.97
2022-09-04T17:43:21.797Z,100488.16
2022-09-04T17:46:02.528Z,100505.41
2022-09-04T17:48:39.848Z,100391.38
2022-09-04T17:51:10.103Z,100491.38
2022-09-04T17:53:46.189Z,100377.31
2022-09-04T17:56:39.990Z,100465.06
2022-09-04T17:59:33.402Z,100397.56
2022-09-04T18:02:02.878Z,100460.50
2022-09-04T18:04:42.555Z,100512.00
2022-09-04T18:08:07.979Z,100512.91
2022-09-04T18:10:37.694Z,100481.34
2022-09-04T18:13:37.108Z,100507.50
2022-09-04T18:16:11.790Z,100493.47
2022-09-04T18:18:55.088Z,100431.16
2022-09-04T18:21:42.927Z,100503.91
2022-09-04T18:24:21.438Z,100380.91
2022-09-04T18:27:11.184Z,100498.53
2022-09-04T18:33:21.149Z,100493.47
2022-09-04T18:37:10.101Z,100494.88
2022-09-04T18:37:17.222Z,100474.72
2022-09-04T18:39:08.751Z,100520.75
2022-09-04T18:45:52.983Z,100471.16
2022-09-04T18:50:32.727Z,100486.81
2022-09-04T18:50:43.934Z,100452.69
2022-09-04T18:53:43.742Z,100481.56
2022-09-04T18:56:27.368Z,100467.53
2022-09-04T18:59:05.187Z,100491.06
2022-09-04T19:01:58.170Z,100389.22
2022-09-04T19:04:45.387Z,100467.31
2022-09-04T19:07:41.356Z,100489.25
2022-09-04T19:10:12.277Z,100491.50
2022-09-04T19:12:58.780Z,100489.97
2022-09-04T19:15:43.793Z,100443.56
2022-09-04T19:18:22.336Z,100501.22
2022-09-04T19:21:16.950Z,100483.94
2022-09-04T19:23:56.601Z,100468.06
2022-09-04T19:26:31.317Z,100372.38
2022-09-04T19:29:25.439Z,100478.56
2022-09-04T19:32:07.788Z,100482.75
2022-09-04T19:34:53.285Z,100423.09
2022-09-04T19:42:04.694Z,100445.84
2022-09-04T19:46:07.545Z,100473.06
2022-09-04T19:46:08.158Z,100468.47
2022-09-04T19:46:43.714Z,100468.78
2022-09-04T19:53:12.857Z,100476.41
2022-09-04T19:53:29.641Z,100429.75
2022-09-04T19:55:50.201Z,100483.31
2022-09-04T19:58:28.386Z,100455.19
2022-09-04T20:00:59.256Z,100447.28
2022-09-04T20:03:36.742Z,100371.75
2022-09-04T20:06:20.209Z,100489.22
2022-09-04T20:08:55.288Z,100490.13
2022-09-04T20:11:35.919Z,100475.94
2022-09-04T20:14:14.772Z,100488.28
2022-09-04T20:17:04.722Z,100474.22
2022-09-04T20:19:48.090Z,100297.00
2022-09-04T20:22:54.293Z,100490.13
2022-09-04T20:25:58.474Z,100490.06
2022-09-04T20:28:30.225Z,100446.91
2022-09-04T20:31:35.384Z,100426.81
2022-09-04T20:34:17.973Z,100486.41
2022-09-04T20:36:51.714Z,100402.06
2022-09-04T20:39:41.874Z,100501.25
2022-09-04T20:42:25.834Z,100426.06
2022-09-04T20:46:38.345Z,100477.69
2022-09-04T20:52:41.286Z,100468.88
2022-09-04T20:52:55.063Z,100445.03
2022-09-04T20:53:55.966Z,100385.53
2022-09-04T20:58:49.223Z,100398.66
2022-09-04T21:03:13.782Z,100477.09
2022-09-04T21:03:14.861Z,100507.81
2022-09-04T21:05:56.380Z,100397.03
2022-09-04T21:09:06.554Z,100438.44
2022-09-04T21:11:43.619Z,100453.19
2022-09-04T21:14:16.701Z,100489.00
2022-09-04T21:16:53.153Z,100483.75
2022-09-04T21:19:36.199Z,100477.63
2022-09-04T21:22:32.311Z,100471.69
2022-09-04T21:25:29.873Z,100470.72
2022-09-04T21:27:59.890Z,100470.53
2022-09-04T21:30:41.951Z,100473.16
2022-09-04T21:33:27.738Z,100452.03
2022-09-04T21:36:26.516Z,100453.78
2022-09-04T21:39:17.809Z,100375.69
2022-09-04T21:42:22.240Z,100473.03
2022-09-04T21:45:23.874Z,100462.31
2022-09-04T21:48:38.544Z,100471.13
2022-09-04T21:51:29.768Z,100481.28
2022-09-04T21:54:34.611Z,100481.19
2022-09-04T22:02:26.632Z,100476.06
2022-09-04T22:02:42.619Z,100473.31
2022-09-04T22:03:15.863Z,100476.84
2022-09-04T22:05:46.850Z,100475.88
2022-09-04T22:11:12.352Z,100439.88
2022-09-04T22:12:54.254Z,100469.69
2022-09-04T22:14:12.634Z,100451.19
2022-09-04T22:17:18.034Z,100410.03
2022-09-04T22:20:03.141Z,100467.06
2022-09-04T22:22:46.081Z,100466.91
2022-09-04T22:25:46.874Z,100468.75
2022-09-04T22:28:23.118Z,100475.63
2022-09-04T22:30:50.292Z,100475.59
2022-09-04T22:33:48.294Z,100481.78
2022-09-04T22:36:38.692Z,100478.06
2022-09-04T22:39:31.404Z,100481.50
2022-09-04T22:42:50.775Z,100480.63
2022-09-04T22:45:30.066Z,100410.09
2022-09-04T22:48:05.052Z,100468.19
2022-09-04T22:50:50.409Z,100416.28
2022-09-04T22:53:38.292Z,100451.34
2022-09-04T22:56:24.382Z,100318.63
2022-09-04T22:59:34.321Z,100481.28
2022-09-04T23:02:14.116Z,100475.75
2022-09-04T23:04:57.662Z,100481.75
2022-09-04T23:13:10.841Z,100480.00
2022-09-04T23:13:49.424Z,100484.34
2022-09-04T23:14:07.978Z,100471.25
2022-09-04T23:16:44.347Z,100481.41
2022-09-04T23:23:00.022Z,100470.13
2022-09-04T23:26:43.056Z,100473.44
2022-09-04T23:26:51.091Z,100472.78
2022-09-04T23:28:56.925Z,100181.81
2022-09-04T23:31:45.119Z,100471.75
2022-09-04T23:34:34.990Z,100472.56
2022-09-04T23:37:18.456Z,100457.28
2022-09-04T23:39:51.343Z,100480.81
2022-09-04T23:42:48.337Z,100452.00
2022-09-04T23:45:29.458Z,100448.31
2022-09-04T23:48:19.892Z,100474.78
2022-09-04T23:50:58.934Z,100365.81
2022-09-04T23:53:43.959Z,100451.09
2022-09-04T23:56:26.984Z,100357.13
2022-09-04T23:59:12.569Z,100468.75
